sensor_id;sensor_type;location;lat;lon;timestamp;P1;durP1;ratioP1;P2;durP2;ratioP2
9214;SDS011;4642;51.364;6.788;2022-12-29T00:01:46;0.90;;;0.60;;
9214;SDS011;4642;51.364;6.788;2022-12-29T00:04:13;0.77;;;0.60;;
9214;SDS011;4642;51.364;6.788;2022-12-29T00:06:40;0.80;;;0.70;;
9214;SDS011;4642;51.364;6.788;2022-12-29T00:09:06;0.70;;;0.60;;
9214;SDS011;4642;51.364;6.788;2022-12-29T00:11:33;0.87;;;0.70;;
9214;SDS011;4642;51.364;6.788;2022-12-29T00:13:58;2.63;;;0.70;;
9214;SDS011;4642;51.364;6.788;2022-12-29T00:16:43;0.70;;;0.70;;
9214;SDS011;4642;51.364;6.788;2022-12-29T00:19:10;1.90;;;0.80;;
9214;SDS011;4642;51.364;6.788;2022-12-29T00:21:57;0.93;;;0.53;;
9214;SDS011;4642;51.364;6.788;2022-12-29T00:24:42;0.93;;;0.70;;
9214;SDS011;4642;51.364;6.788;2022-12-29T00:27:28;0.77;;;0.63;;
9214;SDS011;4642;51.364;6.788;2022-12-29T00:30:15;0.40;;;0.40;;
9214;SDS011;4642;51.364;6.788;2022-12-29T00:33:00;1.10;;;0.60;;
9214;SDS011;4642;51.364;6.788;2022-12-29T00:36:00;1.37;;;0.60;;
9214;SDS011;4642;51.364;6.788;2022-12-29T00:38:33;0.43;;;0.40;;
9214;SDS011;4642;51.364;6.788;2022-12-29T00:41:22;0.40;;;0.40;;
9214;SDS011;4642;51.364;6.788;2022-12-29T00:44:06;0.80;;;0.40;;
9214;SDS011;4642;51.364;6.788;2022-12-29T00:46:38;0.70;;;0.50;;
9214;SDS011;4642;51.364;6.788;2022-12-29T00:49:06;0.80;;;0.70;;
9214;SDS011;4642;51.364;6.788;2022-12-29T00:51:52;0.50;;;0.50;;
9214;SDS011;4642;51.364;6.788;2022-12-29T00:54:18;1.37;;;0.50;;
9214;SDS011;4642;51.364;6.788;2022-12-29T00:56:48;0.63;;;0.60;;
9214;SDS011;4642;51.364;6.788;2022-12-29T00:59:14;0.43;;;0.43;;
9214;SDS011;4642;51.364;6.788;2022-12-29T01:01:40;1.63;;;0.60;;
9214;SDS011;4642;51.364;6.788;2022-12-29T01:04:06;1.17;;;0.50;;
9214;SDS011;4642;51.364;6.788;2022-12-29T01:06:33;0.53;;;0.40;;
9214;SDS011;4642;51.364;6.788;2022-12-29T01:09:00;1.37;;;0.40;;
9214;SDS011;4642;51.364;6.788;2022-12-29T01:11:44;3.90;;;0.50;;
9214;SDS011;4642;51.364;6.788;2022-12-29T01:14:10;0.47;;;0.40;;
9214;SDS011;4642;51.364;6.788;2022-12-29T01:16:35;1.80;;;0.50;;
9214;SDS011;4642;51.364;6.788;2022-12-29T01:19:01;0.40;;;0.40;;
9214;SDS011;4642;51.364;6.788;2022-12-29T01:21:28;0.40;;;0.40;;
9214;SDS011;4642;51.364;6.788;2022-12-29T01:23:53;1.27;;;0.40;;
9214;SDS011;4642;51.364;6.788;2022-12-29T01:26:19;0.53;;;0.47;;
9214;SDS011;4642;51.364;6.788;2022-12-29T01:28:44;0.30;;;0.30;;
9214;SDS011;4642;51.364;6.788;2022-12-29T01:31:12;0.40;;;0.30;;
9214;SDS011;4642;51.364;6.788;2022-12-29T01:33:38;0.40;;;0.30;;
9214;SDS011;4642;51.364;6.788;2022-12-29T01:36:05;0.63;;;0.40;;
9214;SDS011;4642;51.364;6.788;2022-12-29T01:38:33;0.30;;;0.30;;
9214;SDS011;4642;51.364;6.788;2022-12-29T01:40:59;0.87;;;0.33;;
9214;SDS011;4642;51.364;6.788;2022-12-29T01:46:36;0.27;;;0.20;;
9214;SDS011;4642;51.364;6.788;2022-12-29T01:51:44;0.40;;;0.30;;
9214;SDS011;4642;51.364;6.788;2022-12-29T01:54:16;0.83;;;0.40;;
9214;SDS011;4642;51.364;6.788;2022-12-29T01:56:50;0.57;;;0.30;;
9214;SDS011;4642;51.364;6.788;2022-12-29T01:59:18;0.30;;;0.30;;
9214;SDS011;4642;51.364;6.788;2022-12-29T02:01:47;0.50;;;0.50;;
9214;SDS011;4642;51.364;6.788;2022-12-29T02:04:13;1.07;;;0.43;;
9214;SDS011;4642;51.364;6.788;2022-12-29T02:06:53;2.00;;;0.40;;
9214;SDS011;4642;51.364;6.788;2022-12-29T02:09:26;1.70;;;0.40;;
9214;SDS011;4642;51.364;6.788;2022-12-29T02:11:51;1.10;;;0.43;;
9214;SDS011;4642;51.364;6.788;2022-12-29T02:14:18;0.47;;;0.40;;
9214;SDS011;4642;51.364;6.788;2022-12-29T02:22:29;0.53;;;0.30;;
9214;SDS011;4642;51.364;6.788;2022-12-29T02:25:14;0.33;;;0.33;;
9214;SDS011;4642;51.364;6.788;2022-12-29T02:27:48;3.23;;;0.60;;
9214;SDS011;4642;51.364;6.788;2022-12-29T02:33:26;2.87;;;0.67;;
9214;SDS011;4642;51.364;6.788;2022-12-29T02:39:42;0.70;;;0.40;;
9214;SDS011;4642;51.364;6.788;2022-12-29T02:50:20;1.30;;;0.50;;
9214;SDS011;4642;51.364;6.788;2022-12-29T02:52:54;2.63;;;0.70;;
9214;SDS011;4642;51.364;6.788;2022-12-29T02:55:22;3.67;;;0.60;;
9214;SDS011;4642;51.364;6.788;2022-12-29T02:57:47;0.73;;;0.50;;
9214;SDS011;4642;51.364;6.788;2022-12-29T03:00:16;2.07;;;0.60;;
9214;SDS011;4642;51.364;6.788;2022-12-29T03:03:06;0.80;;;0.77;;
9214;SDS011;4642;51.364;6.788;2022-12-29T03:08:55;1.53;;;0.40;;
9214;SDS011;4642;51.364;6.788;2022-12-29T03:11:28;0.77;;;0.50;;
9214;SDS011;4642;51.364;6.788;2022-12-29T03:20:14;1.33;;;0.60;;
9214;SDS011;4642;51.364;6.788;2022-12-29T03:22:46;1.30;;;0.60;;
9214;SDS011;4642;51.364;6.788;2022-12-29T03:25:21;0.57;;;0.47;;
9214;SDS011;4642;51.364;6.788;2022-12-29T03:27:55;0.53;;;0.50;;
9214;SDS011;4642;51.364;6.788;2022-12-29T03:30:28;2.20;;;0.60;;
9214;SDS011;4642;51.364;6.788;2022-12-29T03:32:57;0.83;;;0.73;;
9214;SDS011;4642;51.364;6.788;2022-12-29T03:35:27;1.20;;;0.50;;
9214;SDS011;4642;51.364;6.788;2022-12-29T03:40:55;0.60;;;0.47;;
9214;SDS011;4642;51.364;6.788;2022-12-29T03:43:23;0.40;;;0.40;;
9214;SDS011;4642;51.364;6.788;2022-12-29T03:45:49;1.33;;;0.67;;
9214;SDS011;4642;51.364;6.788;2022-12-29T03:48:14;0.63;;;0.60;;
9214;SDS011;4642;51.364;6.788;2022-12-29T03:50:40;1.77;;;0.60;;
9214;SDS011;4642;51.364;6.788;2022-12-29T03:53:06;2.03;;;0.70;;
9214;SDS011;4642;51.364;6.788;2022-12-29T03:55:32;0.47;;;0.47;;
9214;SDS011;4642;51.364;6.788;2022-12-29T03:57:57;0.60;;;0.27;;
9214;SDS011;4642;51.364;6.788;2022-12-29T04:00:23;0.57;;;0.40;;
9214;SDS011;4642;51.364;6.788;2022-12-29T04:02:48;1.57;;;0.40;;
9214;SDS011;4642;51.364;6.788;2022-12-29T04:05:14;0.60;;;0.43;;
9214;SDS011;4642;51.364;6.788;2022-12-29T04:07:39;3.80;;;0.60;;
9214;SDS011;4642;51.364;6.788;2022-12-29T04:10:05;1.67;;;0.40;;
9214;SDS011;4642;51.364;6.788;2022-12-29T04:12:30;1.50;;;0.40;;
9214;SDS011;4642;51.364;6.788;2022-12-29T04:14:56;0.67;;;0.30;;
9214;SDS011;4642;51.364;6.788;2022-12-29T04:17:21;2.40;;;0.70;;
9214;SDS011;4642;51.364;6.788;2022-12-29T04:19:47;0.80;;;0.50;;
9214;SDS011;4642;51.364;6.788;2022-12-29T04:22:13;1.30;;;0.40;;
9214;SDS011;4642;51.364;6.788;2022-12-29T04:24:39;3.53;;;0.50;;
9214;SDS011;4642;51.364;6.788;2022-12-29T04:27:04;0.77;;;0.60;;
9214;SDS011;4642;51.364;6.788;2022-12-29T04:29:30;1.00;;;0.40;;
9214;SDS011;4642;51.364;6.788;2022-12-29T04:31:55;2.43;;;0.50;;
9214;SDS011;4642;51.364;6.788;2022-12-29T04:34:21;1.20;;;0.60;;
9214;SDS011;4642;51.364;6.788;2022-12-29T04:36:46;0.87;;;0.43;;
9214;SDS011;4642;51.364;6.788;2022-12-29T04:39:12;3.33;;;0.60;;
9214;SDS011;4642;51.364;6.788;2022-12-29T04:41:38;1.17;;;0.40;;
9214;SDS011;4642;51.364;6.788;2022-12-29T04:44:03;0.73;;;0.40;;
9214;SDS011;4642;51.364;6.788;2022-12-29T04:46:29;2.70;;;0.67;;
9214;SDS011;4642;51.364;6.788;2022-12-29T04:48:54;2.17;;;0.53;;
9214;SDS011;4642;51.364;6.788;2022-12-29T04:51:20;1.47;;;0.57;;
9214;SDS011;4642;51.364;6.788;2022-12-29T04:53:46;1.20;;;0.47;;
9214;SDS011;4642;51.364;6.788;2022-12-29T04:56:11;2.00;;;0.60;;
9214;SDS011;4642;51.364;6.788;2022-12-29T04:58:37;1.90;;;0.77;;
9214;SDS011;4642;51.364;6.788;2022-12-29T05:01:02;2.37;;;0.67;;
9214;SDS011;4642;51.364;6.788;2022-12-29T05:03:28;1.57;;;0.70;;
9214;SDS011;4642;51.364;6.788;2022-12-29T05:05:54;1.37;;;0.50;;
9214;SDS011;4642;51.364;6.788;2022-12-29T05:08:20;2.17;;;0.60;;
9214;SDS011;4642;51.364;6.788;2022-12-29T05:10:46;1.33;;;0.40;;
9214;SDS011;4642;51.364;6.788;2022-12-29T05:13:11;0.97;;;0.70;;
9214;SDS011;4642;51.364;6.788;2022-12-29T05:15:37;1.17;;;0.50;;
9214;SDS011;4642;51.364;6.788;2022-12-29T05:18:03;1.47;;;0.67;;
9214;SDS011;4642;51.364;6.788;2022-12-29T05:20:28;0.63;;;0.47;;
9214;SDS011;4642;51.364;6.788;2022-12-29T05:22:54;2.80;;;0.60;;
9214;SDS011;4642;51.364;6.788;2022-12-29T05:25:19;1.10;;;0.30;;
9214;SDS011;4642;51.364;6.788;2022-12-29T05:27:45;3.17;;;0.80;;
9214;SDS011;4642;51.364;6.788;2022-12-29T05:30:11;1.70;;;0.40;;
9214;SDS011;4642;51.364;6.788;2022-12-29T05:32:36;3.20;;;0.50;;
9214;SDS011;4642;51.364;6.788;2022-12-29T05:35:02;0.80;;;0.60;;
9214;SDS011;4642;51.364;6.788;2022-12-29T05:37:28;2.60;;;0.60;;
9214;SDS011;4642;51.364;6.788;2022-12-29T05:39:53;2.13;;;0.50;;
9214;SDS011;4642;51.364;6.788;2022-12-29T05:42:19;1.13;;;0.60;;
9214;SDS011;4642;51.364;6.788;2022-12-29T05:44:44;1.80;;;0.80;;
9214;SDS011;4642;51.364;6.788;2022-12-29T05:47:10;1.33;;;0.60;;
9214;SDS011;4642;51.364;6.788;2022-12-29T05:49:35;4.20;;;0.80;;
9214;SDS011;4642;51.364;6.788;2022-12-29T05:52:01;0.70;;;0.50;;
9214;SDS011;4642;51.364;6.788;2022-12-29T05:54:26;1.20;;;0.60;;
9214;SDS011;4642;51.364;6.788;2022-12-29T05:56:52;1.07;;;0.50;;
9214;SDS011;4642;51.364;6.788;2022-12-29T05:59:17;1.53;;;0.50;;
9214;SDS011;4642;51.364;6.788;2022-12-29T06:01:43;1.70;;;0.67;;
9214;SDS011;4642;51.364;6.788;2022-12-29T06:04:08;1.17;;;0.50;;
9214;SDS011;4642;51.364;6.788;2022-12-29T06:06:34;2.63;;;0.90;;
9214;SDS011;4642;51.364;6.788;2022-12-29T06:09:00;2.43;;;0.77;;
9214;SDS011;4642;51.364;6.788;2022-12-29T06:11:25;3.40;;;0.70;;
9214;SDS011;4642;51.364;6.788;2022-12-29T06:13:51;1.23;;;0.60;;
9214;SDS011;4642;51.364;6.788;2022-12-29T06:16:16;2.10;;;0.87;;
9214;SDS011;4642;51.364;6.788;2022-12-29T06:18:42;1.90;;;0.70;;
9214;SDS011;4642;51.364;6.788;2022-12-29T06:21:07;1.37;;;0.67;;
9214;SDS011;4642;51.364;6.788;2022-12-29T06:23:33;1.57;;;0.77;;
9214;SDS011;4642;51.364;6.788;2022-12-29T06:25:58;1.63;;;0.70;;
9214;SDS011;4642;51.364;6.788;2022-12-29T06:28:24;2.13;;;0.90;;
9214;SDS011;4642;51.364;6.788;2022-12-29T06:30:49;4.07;;;0.70;;
9214;SDS011;4642;51.364;6.788;2022-12-29T06:33:15;2.83;;;0.57;;
9214;SDS011;4642;51.364;6.788;2022-12-29T06:35:41;3.37;;;0.80;;
9214;SDS011;4642;51.364;6.788;2022-12-29T06:38:07;4.53;;;0.70;;
9214;SDS011;4642;51.364;6.788;2022-12-29T06:40:33;1.87;;;0.50;;
9214;SDS011;4642;51.364;6.788;2022-12-29T06:42:58;1.30;;;0.40;;
9214;SDS011;4642;51.364;6.788;2022-12-29T06:45:24;1.87;;;0.50;;
9214;SDS011;4642;51.364;6.788;2022-12-29T06:47:49;1.00;;;0.50;;
9214;SDS011;4642;51.364;6.788;2022-12-29T06:50:15;1.20;;;0.70;;
9214;SDS011;4642;51.364;6.788;2022-12-29T06:52:41;4.07;;;0.90;;
9214;SDS011;4642;51.364;6.788;2022-12-29T06:55:06;2.53;;;0.60;;
9214;SDS011;4642;51.364;6.788;2022-12-29T06:57:32;4.43;;;0.70;;
9214;SDS011;4642;51.364;6.788;2022-12-29T06:59:58;4.33;;;0.80;;
9214;SDS011;4642;51.364;6.788;2022-12-29T07:02:23;5.13;;;0.80;;
9214;SDS011;4642;51.364;6.788;2022-12-29T07:04:52;1.33;;;0.70;;
9214;SDS011;4642;51.364;6.788;2022-12-29T07:07:18;3.83;;;1.00;;
9214;SDS011;4642;51.364;6.788;2022-12-29T07:09:44;3.03;;;0.80;;
9214;SDS011;4642;51.364;6.788;2022-12-29T07:12:10;0.87;;;0.37;;
9214;SDS011;4642;51.364;6.788;2022-12-29T07:14:35;1.47;;;0.47;;
9214;SDS011;4642;51.364;6.788;2022-12-29T07:17:01;2.17;;;0.67;;
9214;SDS011;4642;51.364;6.788;2022-12-29T07:19:30;0.97;;;0.50;;
9214;SDS011;4642;51.364;6.788;2022-12-29T07:21:56;3.23;;;0.90;;
9214;SDS011;4642;51.364;6.788;2022-12-29T07:24:21;2.17;;;1.30;;
9214;SDS011;4642;51.364;6.788;2022-12-29T07:26:47;6.70;;;0.97;;
9214;SDS011;4642;51.364;6.788;2022-12-29T07:29:12;3.60;;;0.70;;
9214;SDS011;4642;51.364;6.788;2022-12-29T07:31:38;3.10;;;0.90;;
9214;SDS011;4642;51.364;6.788;2022-12-29T07:34:03;1.67;;;0.63;;
9214;SDS011;4642;51.364;6.788;2022-12-29T07:36:29;2.40;;;0.60;;
9214;SDS011;4642;51.364;6.788;2022-12-29T07:38:54;4.70;;;0.70;;
9214;SDS011;4642;51.364;6.788;2022-12-29T07:41:20;1.93;;;0.80;;
9214;SDS011;4642;51.364;6.788;2022-12-29T07:43:46;4.23;;;1.03;;
9214;SDS011;4642;51.364;6.788;2022-12-29T07:46:13;3.23;;;0.90;;
9214;SDS011;4642;51.364;6.788;2022-12-29T07:48:39;3.63;;;0.80;;
9214;SDS011;4642;51.364;6.788;2022-12-29T07:51:04;2.43;;;0.70;;
9214;SDS011;4642;51.364;6.788;2022-12-29T07:53:30;3.20;;;0.90;;
9214;SDS011;4642;51.364;6.788;2022-12-29T07:55:55;1.40;;;0.50;;
9214;SDS011;4642;51.364;6.788;2022-12-29T07:58:21;3.63;;;0.87;;
9214;SDS011;4642;51.364;6.788;2022-12-29T08:00:46;9.10;;;0.93;;
9214;SDS011;4642;51.364;6.788;2022-12-29T08:03:12;5.47;;;1.00;;
9214;SDS011;4642;51.364;6.788;2022-12-29T08:05:38;3.57;;;1.20;;
9214;SDS011;4642;51.364;6.788;2022-12-29T08:08:03;1.83;;;0.80;;
9214;SDS011;4642;51.364;6.788;2022-12-29T08:10:29;2.70;;;0.90;;
9214;SDS011;4642;51.364;6.788;2022-12-29T08:12:54;3.13;;;0.90;;
9214;SDS011;4642;51.364;6.788;2022-12-29T08:15:20;6.40;;;1.10;;
9214;SDS011;4642;51.364;6.788;2022-12-29T08:17:45;1.80;;;0.70;;
9214;SDS011;4642;51.364;6.788;2022-12-29T08:20:11;5.80;;;1.00;;
9214;SDS011;4642;51.364;6.788;2022-12-29T08:22:36;2.97;;;0.83;;
9214;SDS011;4642;51.364;6.788;2022-12-29T08:25:02;1.80;;;0.70;;
9214;SDS011;4642;51.364;6.788;2022-12-29T08:27:28;2.27;;;0.87;;
9214;SDS011;4642;51.364;6.788;2022-12-29T08:29:54;5.80;;;1.03;;
9214;SDS011;4642;51.364;6.788;2022-12-29T08:32:19;1.47;;;0.70;;
9214;SDS011;4642;51.364;6.788;2022-12-29T08:34:45;5.10;;;0.97;;
9214;SDS011;4642;51.364;6.788;2022-12-29T08:37:10;4.60;;;1.07;;
9214;SDS011;4642;51.364;6.788;2022-12-29T08:39:36;5.67;;;0.80;;
9214;SDS011;4642;51.364;6.788;2022-12-29T08:42:01;2.23;;;1.07;;
9214;SDS011;4642;51.364;6.788;2022-12-29T08:44:27;5.63;;;0.97;;
9214;SDS011;4642;51.364;6.788;2022-12-29T08:46:52;6.53;;;1.03;;
9214;SDS011;4642;51.364;6.788;2022-12-29T08:49:18;5.33;;;1.03;;
9214;SDS011;4642;51.364;6.788;2022-12-29T08:51:44;4.60;;;1.00;;
9214;SDS011;4642;51.364;6.788;2022-12-29T08:54:09;3.07;;;0.90;;
9214;SDS011;4642;51.364;6.788;2022-12-29T08:56:35;2.97;;;0.80;;
9214;SDS011;4642;51.364;6.788;2022-12-29T08:59:00;3.63;;;1.13;;
9214;SDS011;4642;51.364;6.788;2022-12-29T09:01:26;1.93;;;0.80;;
9214;SDS011;4642;51.364;6.788;2022-12-29T09:03:52;3.53;;;0.83;;
9214;SDS011;4642;51.364;6.788;2022-12-29T09:06:18;3.17;;;1.20;;
9214;SDS011;4642;51.364;6.788;2022-12-29T09:08:44;2.63;;;1.03;;
9214;SDS011;4642;51.364;6.788;2022-12-29T09:11:14;4.07;;;1.13;;
9214;SDS011;4642;51.364;6.788;2022-12-29T09:13:42;3.63;;;0.70;;
9214;SDS011;4642;51.364;6.788;2022-12-29T09:16:08;5.17;;;0.90;;
9214;SDS011;4642;51.364;6.788;2022-12-29T09:18:33;6.77;;;1.70;;
9214;SDS011;4642;51.364;6.788;2022-12-29T09:21:00;5.17;;;1.20;;
9214;SDS011;4642;51.364;6.788;2022-12-29T09:23:27;5.43;;;1.00;;
9214;SDS011;4642;51.364;6.788;2022-12-29T09:25:53;4.70;;;1.17;;
9214;SDS011;4642;51.364;6.788;2022-12-29T09:28:19;3.83;;;0.80;;
9214;SDS011;4642;51.364;6.788;2022-12-29T09:30:45;4.33;;;1.30;;
9214;SDS011;4642;51.364;6.788;2022-12-29T09:33:11;7.17;;;0.90;;
9214;SDS011;4642;51.364;6.788;2022-12-29T09:35:36;4.53;;;1.00;;
9214;SDS011;4642;51.364;6.788;2022-12-29T09:38:02;3.17;;;1.07;;
9214;SDS011;4642;51.364;6.788;2022-12-29T09:40:31;8.07;;;1.17;;
9214;SDS011;4642;51.364;6.788;2022-12-29T09:51:30;4.07;;;1.17;;
9214;SDS011;4642;51.364;6.788;2022-12-29T09:53:58;10.53;;;1.37;;
9214;SDS011;4642;51.364;6.788;2022-12-29T09:56:28;5.30;;;1.20;;
9214;SDS011;4642;51.364;6.788;2022-12-29T09:59:02;3.37;;;0.90;;
9214;SDS011;4642;51.364;6.788;2022-12-29T10:01:41;1.07;;;0.70;;
9214;SDS011;4642;51.364;6.788;2022-12-29T10:04:18;6.33;;;1.50;;
9214;SDS011;4642;51.364;6.788;2022-12-29T10:12:28;5.90;;;1.23;;
9214;SDS011;4642;51.364;6.788;2022-12-29T10:15:14;2.40;;;1.00;;
9214;SDS011;4642;51.364;6.788;2022-12-29T10:18:03;4.07;;;1.00;;
9214;SDS011;4642;51.364;6.788;2022-12-29T10:20:48;4.07;;;0.93;;
9214;SDS011;4642;51.364;6.788;2022-12-29T10:25:56;4.03;;;1.00;;
9214;SDS011;4642;51.364;6.788;2022-12-29T10:28:24;4.77;;;1.37;;
9214;SDS011;4642;51.364;6.788;2022-12-29T10:31:22;3.33;;;0.93;;
9214;SDS011;4642;51.364;6.788;2022-12-29T10:33:50;3.53;;;1.00;;
9214;SDS011;4642;51.364;6.788;2022-12-29T10:36:23;4.77;;;1.10;;
9214;SDS011;4642;51.364;6.788;2022-12-29T10:38:58;3.57;;;1.17;;
9214;SDS011;4642;51.364;6.788;2022-12-29T10:41:36;5.90;;;1.03;;
9214;SDS011;4642;51.364;6.788;2022-12-29T10:44:07;4.77;;;1.13;;
9214;SDS011;4642;51.364;6.788;2022-12-29T10:46:37;4.07;;;0.93;;
9214;SDS011;4642;51.364;6.788;2022-12-29T10:49:04;6.40;;;1.50;;
9214;SDS011;4642;51.364;6.788;2022-12-29T10:51:32;3.97;;;1.23;;
9214;SDS011;4642;51.364;6.788;2022-12-29T10:56:52;4.87;;;1.10;;
9214;SDS011;4642;51.364;6.788;2022-12-29T10:59:22;3.40;;;1.33;;
9214;SDS011;4642;51.364;6.788;2022-12-29T11:02:00;4.83;;;1.13;;
9214;SDS011;4642;51.364;6.788;2022-12-29T11:07:26;6.33;;;1.20;;
9214;SDS011;4642;51.364;6.788;2022-12-29T11:09:53;4.40;;;1.40;;
9214;SDS011;4642;51.364;6.788;2022-12-29T11:15:00;5.73;;;1.17;;
9214;SDS011;4642;51.364;6.788;2022-12-29T11:17:49;7.83;;;1.67;;
9214;SDS011;4642;51.364;6.788;2022-12-29T11:22:54;5.60;;;1.10;;
9214;SDS011;4642;51.364;6.788;2022-12-29T11:25:20;4.43;;;1.07;;
9214;SDS011;4642;51.364;6.788;2022-12-29T11:30:49;13.63;;;1.53;;
9214;SDS011;4642;51.364;6.788;2022-12-29T11:33:27;6.43;;;1.00;;
9214;SDS011;4642;51.364;6.788;2022-12-29T11:35:56;4.40;;;1.20;;
9214;SDS011;4642;51.364;6.788;2022-12-29T11:38:24;5.13;;;1.20;;
9214;SDS011;4642;51.364;6.788;2022-12-29T11:40:57;9.10;;;1.20;;
9214;SDS011;4642;51.364;6.788;2022-12-29T11:43:29;9.67;;;1.67;;
9214;SDS011;4642;51.364;6.788;2022-12-29T11:45:58;4.77;;;1.10;;
9214;SDS011;4642;51.364;6.788;2022-12-29T11:48:25;5.10;;;1.00;;
9214;SDS011;4642;51.364;6.788;2022-12-29T11:50:57;5.10;;;1.47;;
9214;SDS011;4642;51.364;6.788;2022-12-29T11:53:27;7.23;;;1.20;;
9214;SDS011;4642;51.364;6.788;2022-12-29T11:56:02;5.13;;;1.17;;
9214;SDS011;4642;51.364;6.788;2022-12-29T11:58:34;5.43;;;1.30;;
9214;SDS011;4642;51.364;6.788;2022-12-29T12:03:48;10.37;;;1.70;;
9214;SDS011;4642;51.364;6.788;2022-12-29T12:06:22;5.40;;;1.27;;
9214;SDS011;4642;51.364;6.788;2022-12-29T12:09:00;3.93;;;1.20;;
9214;SDS011;4642;51.364;6.788;2022-12-29T12:11:32;5.33;;;1.60;;
9214;SDS011;4642;51.364;6.788;2022-12-29T12:14:11;5.17;;;0.90;;
9214;SDS011;4642;51.364;6.788;2022-12-29T12:19:25;7.20;;;1.10;;
9214;SDS011;4642;51.364;6.788;2022-12-29T12:22:04;5.27;;;1.57;;
9214;SDS011;4642;51.364;6.788;2022-12-29T12:30:37;7.57;;;1.50;;
9214;SDS011;4642;51.364;6.788;2022-12-29T12:36:02;4.13;;;1.13;;
9214;SDS011;4642;51.364;6.788;2022-12-29T12:38:51;5.50;;;1.37;;
9214;SDS011;4642;51.364;6.788;2022-12-29T12:41:37;2.77;;;0.83;;
9214;SDS011;4642;51.364;6.788;2022-12-29T12:44:49;4.93;;;0.93;;
9214;SDS011;4642;51.364;6.788;2022-12-29T12:53:22;4.60;;;1.43;;
9214;SDS011;4642;51.364;6.788;2022-12-29T13:01:28;3.80;;;1.63;;
9214;SDS011;4642;51.364;6.788;2022-12-29T13:04:26;7.70;;;1.27;;
9214;SDS011;4642;51.364;6.788;2022-12-29T13:26:47;7.07;;;1.50;;
9214;SDS011;4642;51.364;6.788;2022-12-29T13:37:51;9.00;;;1.23;;
9214;SDS011;4642;51.364;6.788;2022-12-29T13:40:43;3.20;;;0.73;;
9214;SDS011;4642;51.364;6.788;2022-12-29T13:43:12;3.80;;;1.00;;
9214;SDS011;4642;51.364;6.788;2022-12-29T13:45:38;7.10;;;1.53;;
9214;SDS011;4642;51.364;6.788;2022-12-29T13:48:08;4.30;;;1.00;;
9214;SDS011;4642;51.364;6.788;2022-12-29T13:50:36;5.50;;;1.27;;
9214;SDS011;4642;51.364;6.788;2022-12-29T13:53:23;6.90;;;1.33;;
9214;SDS011;4642;51.364;6.788;2022-12-29T14:01:22;3.20;;;1.30;;
9214;SDS011;4642;51.364;6.788;2022-12-29T14:04:03;7.07;;;1.43;;
9214;SDS011;4642;51.364;6.788;2022-12-29T14:06:38;9.37;;;1.40;;
9214;SDS011;4642;51.364;6.788;2022-12-29T14:11:59;7.23;;;1.40;;
9214;SDS011;4642;51.364;6.788;2022-12-29T14:14:28;2.47;;;0.97;;
9214;SDS011;4642;51.364;6.788;2022-12-29T14:17:06;5.23;;;1.00;;
9214;SDS011;4642;51.364;6.788;2022-12-29T14:19:39;4.63;;;1.03;;
9214;SDS011;4642;51.364;6.788;2022-12-29T14:22:07;4.87;;;1.30;;
9214;SDS011;4642;51.364;6.788;2022-12-29T14:27:00;12.37;;;1.47;;
9214;SDS011;4642;51.364;6.788;2022-12-29T14:29:49;2.67;;;0.83;;
9214;SDS011;4642;51.364;6.788;2022-12-29T14:34:44;5.83;;;1.30;;
9214;SDS011;4642;51.364;6.788;2022-12-29T14:37:22;7.47;;;1.20;;
9214;SDS011;4642;51.364;6.788;2022-12-29T14:39:48;6.40;;;1.10;;
9214;SDS011;4642;51.364;6.788;2022-12-29T14:42:15;6.37;;;1.13;;
9214;SDS011;4642;51.364;6.788;2022-12-29T14:44:50;4.77;;;1.20;;
9214;SDS011;4642;51.364;6.788;2022-12-29T14:47:32;7.23;;;1.20;;
9214;SDS011;4642;51.364;6.788;2022-12-29T14:50:06;7.87;;;1.33;;
9214;SDS011;4642;51.364;6.788;2022-12-29T14:57:40;8.23;;;1.07;;
9214;SDS011;4642;51.364;6.788;2022-12-29T15:00:16;4.33;;;1.30;;
9214;SDS011;4642;51.364;6.788;2022-12-29T15:02:49;10.33;;;1.53;;
9214;SDS011;4642;51.364;6.788;2022-12-29T15:05:46;6.00;;;1.40;;
9214;SDS011;4642;51.364;6.788;2022-12-29T15:08:30;8.30;;;1.50;;
9214;SDS011;4642;51.364;6.788;2022-12-29T15:11:14;3.13;;;1.20;;
9214;SDS011;4642;51.364;6.788;2022-12-29T15:13:43;9.00;;;1.33;;
9214;SDS011;4642;51.364;6.788;2022-12-29T15:16:26;4.50;;;1.17;;
9214;SDS011;4642;51.364;6.788;2022-12-29T15:19:00;4.33;;;1.23;;
9214;SDS011;4642;51.364;6.788;2022-12-29T15:21:27;4.20;;;0.90;;
9214;SDS011;4642;51.364;6.788;2022-12-29T15:23:55;5.90;;;1.00;;
9214;SDS011;4642;51.364;6.788;2022-12-29T15:26:21;5.10;;;1.13;;
9214;SDS011;4642;51.364;6.788;2022-12-29T15:28:49;4.87;;;1.40;;
9214;SDS011;4642;51.364;6.788;2022-12-29T15:31:23;5.27;;;1.33;;
9214;SDS011;4642;51.364;6.788;2022-12-29T15:33:51;4.23;;;1.10;;
9214;SDS011;4642;51.364;6.788;2022-12-29T15:36:22;3.10;;;0.83;;
9214;SDS011;4642;51.364;6.788;2022-12-29T15:38:52;9.20;;;1.20;;
9214;SDS011;4642;51.364;6.788;2022-12-29T15:47:11;5.17;;;1.27;;
9214;SDS011;4642;51.364;6.788;2022-12-29T15:49:38;5.90;;;1.70;;
9214;SDS011;4642;51.364;6.788;2022-12-29T15:52:07;4.47;;;1.03;;
9214;SDS011;4642;51.364;6.788;2022-12-29T15:54:33;4.37;;;1.10;;
9214;SDS011;4642;51.364;6.788;2022-12-29T15:56:59;5.37;;;1.17;;
9214;SDS011;4642;51.364;6.788;2022-12-29T15:59:26;3.90;;;1.40;;
9214;SDS011;4642;51.364;6.788;2022-12-29T16:01:53;8.43;;;1.30;;
9214;SDS011;4642;51.364;6.788;2022-12-29T16:04:23;3.13;;;1.07;;
9214;SDS011;4642;51.364;6.788;2022-12-29T16:06:56;9.20;;;1.30;;
9214;SDS011;4642;51.364;6.788;2022-12-29T16:15:01;4.53;;;1.20;;
9214;SDS011;4642;51.364;6.788;2022-12-29T16:17:33;8.20;;;2.47;;
9214;SDS011;4642;51.364;6.788;2022-12-29T16:20:03;4.30;;;1.43;;
9214;SDS011;4642;51.364;6.788;2022-12-29T16:22:41;5.87;;;1.37;;
9214;SDS011;4642;51.364;6.788;2022-12-29T16:25:15;5.00;;;1.13;;
9214;SDS011;4642;51.364;6.788;2022-12-29T16:27:59;6.67;;;1.73;;
9214;SDS011;4642;51.364;6.788;2022-12-29T16:30:30;4.03;;;1.43;;
9214;SDS011;4642;51.364;6.788;2022-12-29T16:33:01;6.37;;;1.40;;
9214;SDS011;4642;51.364;6.788;2022-12-29T16:35:38;5.97;;;1.63;;
9214;SDS011;4642;51.364;6.788;2022-12-29T16:38:14;4.90;;;1.33;;
9214;SDS011;4642;51.364;6.788;2022-12-29T16:40:57;6.23;;;1.60;;
9214;SDS011;4642;51.364;6.788;2022-12-29T16:43:31;5.67;;;1.60;;
9214;SDS011;4642;51.364;6.788;2022-12-29T16:48:32;4.67;;;1.17;;
9214;SDS011;4642;51.364;6.788;2022-12-29T16:53:31;10.97;;;1.23;;
9214;SDS011;4642;51.364;6.788;2022-12-29T16:56:14;4.40;;;1.40;;
9214;SDS011;4642;51.364;6.788;2022-12-29T16:58:48;7.70;;;2.10;;
9214;SDS011;4642;51.364;6.788;2022-12-29T17:01:18;6.63;;;1.30;;
9214;SDS011;4642;51.364;6.788;2022-12-29T17:03:48;11.13;;;2.47;;
9214;SDS011;4642;51.364;6.788;2022-12-29T17:06:17;7.50;;;1.60;;
9214;SDS011;4642;51.364;6.788;2022-12-29T17:08:45;5.77;;;1.43;;
9214;SDS011;4642;51.364;6.788;2022-12-29T17:11:22;2.93;;;1.67;;
9214;SDS011;4642;51.364;6.788;2022-12-29T17:14:21;5.47;;;1.43;;
9214;SDS011;4642;51.364;6.788;2022-12-29T17:17:14;4.97;;;1.73;;
9214;SDS011;4642;51.364;6.788;2022-12-29T17:19:46;2.60;;;1.07;;
9214;SDS011;4642;51.364;6.788;2022-12-29T17:22:18;3.20;;;0.90;;
9214;SDS011;4642;51.364;6.788;2022-12-29T17:24:49;3.40;;;0.73;;
9214;SDS011;4642;51.364;6.788;2022-12-29T17:30:01;1.60;;;0.73;;
9214;SDS011;4642;51.364;6.788;2022-12-29T17:32:29;4.80;;;0.97;;
9214;SDS011;4642;51.364;6.788;2022-12-29T17:34:56;3.47;;;0.70;;
9214;SDS011;4642;51.364;6.788;2022-12-29T17:39:56;4.50;;;0.70;;
9214;SDS011;4642;51.364;6.788;2022-12-29T17:42:21;3.60;;;1.10;;
9214;SDS011;4642;51.364;6.788;2022-12-29T17:44:47;3.07;;;0.93;;
9214;SDS011;4642;51.364;6.788;2022-12-29T17:47:13;1.17;;;0.60;;
9214;SDS011;4642;51.364;6.788;2022-12-29T17:49:40;2.23;;;0.77;;
9214;SDS011;4642;51.364;6.788;2022-12-29T17:52:10;5.40;;;1.20;;
9214;SDS011;4642;51.364;6.788;2022-12-29T17:54:37;4.67;;;1.17;;
9214;SDS011;4642;51.364;6.788;2022-12-29T17:57:13;0.80;;;0.57;;
9214;SDS011;4642;51.364;6.788;2022-12-29T17:59:40;6.67;;;1.07;;
9214;SDS011;4642;51.364;6.788;2022-12-29T18:04:55;2.50;;;0.70;;
9214;SDS011;4642;51.364;6.788;2022-12-29T18:07:22;2.80;;;1.00;;
9214;SDS011;4642;51.364;6.788;2022-12-29T18:09:51;1.50;;;0.90;;
9214;SDS011;4642;51.364;6.788;2022-12-29T18:12:24;4.03;;;1.00;;
9214;SDS011;4642;51.364;6.788;2022-12-29T18:14:57;2.70;;;1.00;;
9214;SDS011;4642;51.364;6.788;2022-12-29T18:17:23;2.50;;;1.07;;
9214;SDS011;4642;51.364;6.788;2022-12-29T18:19:48;2.80;;;1.10;;